Time;durP1;ratioP1;P1;durP2;ratioP2;P2;SDS_P1;SDS_P2;PMS_P1;PMS_P2;Temp;Humidity;BMP_temperature;BMP_pressure;BME280_temperature;BME280_humidity;BME280_pressure;Samples;Min_cycle;Max_cycle;Signal;HPM_P1;HPM_P2
2020/12/03 00:00:24;;;;;;;71.70;33.50;;;;;;;;;;5041242;28;20093;-65
2020/12/03 00:02:51;;;;;;;72.78;33.13;;;;;;;;;;5046891;28;20431;-65
2020/12/03 00:05:17;;;;;;;70.97;33.67;;;;;;;;;;5043650;28;20099;-65
2020/12/03 00:07:43;;;;;;;54.60;24.25;;;;;;;;;;5043891;28;20120;-65
2020/12/03 00:10:09;;;;;;;72.15;34.72;;;;;;;;;;5053740;28;20037;-65
2020/12/03 00:12:36;;;;;;;71.90;35.13;;;;;;;;;;5047010;28;20094;-65
2020/12/03 00:15:02;;;;;;;69.10;33.27;;;;;;;;;;5048264;28;20072;-65
2020/12/03 00:17:29;;;;;;;71.00;31.52;;;;;;;;;;5041709;28;20299;-65
2020/12/03 00:19:55;;;;;;;69.00;30.20;;;;;;;;;;5039835;28;20045;-65
2020/12/03 00:22:21;;;;;;;53.83;24.23;;;;;;;;;;5043724;28;20052;-65
2020/12/03 00:24:48;;;;;;;69.50;33.75;;;;;;;;;;5046553;28;20045;-65
2020/12/03 00:27:14;;;;;;;65.32;33.65;;;;;;;;;;5047292;28;20045;-65
2020/12/03 00:29:40;;;;;;;68.95;29.65;;;;;;;;;;5043155;28;20047;-65
2020/12/03 00:32:06;;;;;;;69.03;31.15;;;;;;;;;;5052518;28;20037;-65
2020/12/03 00:34:33;;;;;;;69.63;31.67;;;;;;;;;;5051571;28;20045;-65
2020/12/03 00:36:59;;;;;;;66.45;32.80;;;;;;;;;;5039804;28;20049;-65
2020/12/03 00:39:25;;;;;;;73.00;32.75;;;;;;;;;;5037363;28;20042;-66
2020/12/03 00:41:53;;;;;;;65.65;31.50;;;;;;;;;;5045797;28;20091;-65
2020/12/03 00:44:21;;;;;;;68.60;30.98;;;;;;;;;;5039707;28;20045;-65
2020/12/03 00:46:47;;;;;;;68.95;33.60;;;;;;;;;;5021992;28;20501;-66
2020/12/03 00:49:16;;;;;;;70.38;28.52;;;;;;;;;;5051320;28;20079;-65
2020/12/03 00:51:43;;;;;;;58.70;26.70;;;;;;;;;;5022321;28;20068;-65
2020/12/03 00:54:10;;;;;;;69.30;32.90;;;;;;;;;;5047590;28;20037;-65
2020/12/03 00:56:38;;;;;;;70.30;32.67;;;;;;;;;;5039037;28;20493;-65
2020/12/03 00:59:05;;;;;;;68.88;32.90;;;;;;;;;;5026420;28;20045;-65
2020/12/03 01:01:33;;;;;;;66.28;31.65;;;;;;;;;;5048721;28;20508;-65
2020/12/03 01:03:59;;;;;;;;;;;;;;;;;;5054600;28;20377;-65
2020/12/03 01:06:25;;;;;;;66.20;32.60;;;;;;;;;;5040795;28;19928;-66
2020/12/03 01:08:51;;;;;;;70.97;31.50;;;;;;;;;;5043993;28;20041;-65
2020/12/03 01:11:21;;;;;;;66.07;30.27;;;;;;;;;;5044783;28;20037;-66
2020/12/03 01:13:48;;;;;;;60.25;29.42;;;;;;;;;;5039577;28;20489;-65
2020/12/03 01:16:18;;;;;;;52.20;19.58;;;;;;;;;;5050016;28;20052;-65
2020/12/03 01:18:46;;;;;;;69.45;32.15;;;;;;;;;;5040584;28;20116;-66
2020/12/03 01:21:12;;;;;;;69.53;33.20;;;;;;;;;;5042866;28;20044;-65
2020/12/03 01:23:38;;;;;;;60.97;28.63;;;;;;;;;;5045581;28;20030;-65
2020/12/03 01:26:04;;;;;;;53.13;24.00;;;;;;;;;;5046525;28;20641;-65
2020/12/03 01:28:31;;;;;;;59.58;28.73;;;;;;;;;;5043368;28;20037;-66
2020/12/03 01:30:57;;;;;;;65.13;30.67;;;;;;;;;;5051252;28;20056;-66
2020/12/03 01:33:24;;;;;;;67.78;32.80;;;;;;;;;;5040318;28;20034;-66
2020/12/03 01:35:50;;;;;;;61.20;29.55;;;;;;;;;;5041547;28;20039;-66
2020/12/03 01:38:16;;;;;;;71.03;34.75;;;;;;;;;;5042360;28;20428;-66
2020/12/03 01:40:48;;;;;;;71.57;34.80;;;;;;;;;;5045281;28;20033;-66
2020/12/03 01:43:14;;;;;;;66.35;32.97;;;;;;;;;;5045220;28;20520;-66
2020/12/03 01:45:49;;;;;;;70.85;35.25;;;;;;;;;;5045335;28;20041;-66
2020/12/03 01:48:38;;;;;;;71.38;32.22;;;;;;;;;;5037452;28;20068;-66
2020/12/03 01:51:09;;;;;;;79.53;37.22;;;;;;;;;;5035895;28;20075;-66
2020/12/03 01:53:35;;;;;;;78.60;37.08;;;;;;;;;;5043358;28;20049;-66
2020/12/03 01:56:03;;;;;;;78.93;36.00;;;;;;;;;;5041520;28;20128;-66
2020/12/03 01:58:41;;;;;;;75.38;36.08;;;;;;;;;;5036633;28;20033;-66
2020/12/03 02:01:08;;;;;;;;;;;;;;;;;;5048659;28;20041;-66
2020/12/03 02:03:34;;;;;;;72.00;34.47;;;;;;;;;;5049486;28;20435;-66
2020/12/03 02:06:00;;;;;;;71.38;32.80;;;;;;;;;;5056155;28;20083;-66
2020/12/03 02:08:27;;;;;;;73.20;35.35;;;;;;;;;;5055192;28;20400;-66
2020/12/03 02:10:53;;;;;;;74.90;34.92;;;;;;;;;;5052274;28;20127;-67
2020/12/03 02:13:19;;;;;;;74.80;35.08;;;;;;;;;;5054825;28;20045;-66
2020/12/03 02:15:46;;;;;;;67.75;32.83;;;;;;;;;;5044696;28;20484;-67
2020/12/03 02:18:13;;;;;;;69.95;31.20;;;;;;;;;;5045809;28;20042;-66
2020/12/03 02:20:39;;;;;;;66.03;31.98;;;;;;;;;;5044507;28;20083;-66
2020/12/03 02:23:16;;;;;;;64.90;29.98;;;;;;;;;;5049882;28;20037;-66
2020/12/03 02:25:43;;;;;;;71.38;31.15;;;;;;;;;;5045963;28;20409;-66
2020/12/03 02:28:10;;;;;;;74.00;35.45;;;;;;;;;;5044991;28;20090;-66
2020/12/03 02:30:36;;;;;;;78.65;36.47;;;;;;;;;;5049117;28;20508;-66
2020/12/03 02:33:02;;;;;;;83.28;35.92;;;;;;;;;;5050744;28;20052;-66
2020/12/03 02:35:28;;;;;;;81.25;37.78;;;;;;;;;;5043541;28;20041;-66
2020/12/03 02:37:55;;;;;;;81.18;36.10;;;;;;;;;;5049201;28;20036;-66
2020/12/03 02:40:21;;;;;;;81.03;35.07;;;;;;;;;;5054542;28;20059;-66
2020/12/03 02:42:47;;;;;;;78.57;36.97;;;;;;;;;;5051090;28;20037;-66
2020/12/03 02:45:14;;;;;;;73.90;32.63;;;;;;;;;;5050252;28;20036;-66
2020/12/03 02:47:40;;;;;;;72.85;34.10;;;;;;;;;;5052611;28;20386;-67
2020/12/03 02:50:07;;;;;;;79.88;37.30;;;;;;;;;;5048914;28;20040;-66
2020/12/03 02:52:33;;;;;;;88.05;39.40;;;;;;;;;;5049987;28;20124;-66
2020/12/03 02:55:01;;;;;;;87.40;38.65;;;;;;;;;;5048354;28;20143;-66
2020/12/03 02:57:27;;;;;;;81.72;38.47;;;;;;;;;;5044428;28;20164;-66
2020/12/03 02:59:53;;;;;;;80.80;36.75;;;;;;;;;;5051619;28;20044;-67
2020/12/03 03:02:20;;;;;;;82.65;37.38;;;;;;;;;;5044961;28;20036;-67
2020/12/03 03:04:46;;;;;;;78.60;37.25;;;;;;;;;;5033748;28;20162;-66
2020/12/03 03:07:13;;;;;;;86.50;36.53;;;;;;;;;;5048814;28;20044;-66
2020/12/03 03:09:39;;;;;;;87.78;38.90;;;;;;;;;;5048686;28;20041;-66
2020/12/03 03:12:06;;;;;;;88.30;39.92;;;;;;;;;;5046709;28;20509;-65
2020/12/03 03:14:32;;;;;;;86.40;39.40;;;;;;;;;;5043417;28;20048;-66
2020/12/03 03:16:58;;;;;;;88.57;40.55;;;;;;;;;;5044337;28;20037;-65
2020/12/03 03:19:25;;;;;;;85.13;39.17;;;;;;;;;;5039172;28;20389;-66
2020/12/03 03:21:52;;;;;;;87.82;38.35;;;;;;;;;;5043614;28;20041;-65
2020/12/03 03:24:18;;;;;;;94.97;41.15;;;;;;;;;;5039793;28;20132;-66
2020/12/03 03:26:45;;;;;;;83.03;41.22;;;;;;;;;;5045179;28;20048;-66
2020/12/03 03:29:11;;;;;;;100.68;42.35;;;;;;;;;;5051797;28;20485;-65
2020/12/03 03:31:37;;;;;;;94.72;41.22;;;;;;;;;;5051142;28;20118;-65
2020/12/03 03:34:04;;;;;;;98.30;42.85;;;;;;;;;;5054656;28;20047;-66
2020/12/03 03:36:30;;;;;;;95.25;41.45;;;;;;;;;;5047082;28;20037;-66
2020/12/03 03:38:57;;;;;;;101.20;42.60;;;;;;;;;;5044809;28;20043;-66
2020/12/03 03:41:23;;;;;;;108.22;46.28;;;;;;;;;;5049614;28;20128;-65
2020/12/03 03:43:50;;;;;;;99.47;41.42;;;;;;;;;;5051029;28;20494;-65
2020/12/03 03:46:16;;;;;;;103.95;45.20;;;;;;;;;;5042628;28;20450;-65
2020/12/03 03:48:43;;;;;;;105.97;44.03;;;;;;;;;;5050665;28;20049;-66
2020/12/03 03:51:09;;;;;;;115.20;46.65;;;;;;;;;;5042951;28;20044;-65
2020/12/03 03:53:35;;;;;;;102.68;45.10;;;;;;;;;;5041646;28;20094;-66
2020/12/03 03:56:02;;;;;;;102.38;43.88;;;;;;;;;;5032196;28;20045;-66
2020/12/03 03:58:28;;;;;;;99.65;45.08;;;;;;;;;;5046477;28;20041;-65
2020/12/03 04:00:55;;;;;;;106.60;46.40;;;;;;;;;;5047954;28;20036;-65
2020/12/03 04:03:22;;;;;;;108.32;44.88;;;;;;;;;;5045548;28;20045;-65
2020/12/03 04:05:50;;;;;;;101.35;44.60;;;;;;;;;;5045188;28;20040;-65
2020/12/03 04:08:16;;;;;;;108.28;46.47;;;;;;;;;;5040390;28;20049;-65
2020/12/03 04:10:43;;;;;;;110.20;46.30;;;;;;;;;;5045176;28;20029;-65
2020/12/03 04:13:10;;;;;;;106.15;45.58;;;;;;;;;;5042068;28;20036;-65
2020/12/03 04:15:36;;;;;;;116.63;45.30;;;;;;;;;;5041535;28;20044;-65
2020/12/03 04:18:02;;;;;;;111.80;44.50;;;;;;;;;;5042091;28;20511;-65
2020/12/03 04:20:29;;;;;;;106.35;44.67;;;;;;;;;;5045220;28;20512;-65
2020/12/03 04:22:55;;;;;;;110.30;45.72;;;;;;;;;;5057310;28;20044;-65
2020/12/03 04:25:21;;;;;;;107.00;48.10;;;;;;;;;;5026822;28;20056;-65
2020/12/03 04:27:48;;;;;;;108.28;46.50;;;;;;;;;;5053289;28;20029;-65
2020/12/03 04:30:14;;;;;;;79.40;31.02;;;;;;;;;;5053359;28;20037;-65
2020/12/03 04:32:41;;;;;;;102.35;44.67;;;;;;;;;;5041106;28;20045;-66
2020/12/03 04:35:08;;;;;;;106.53;45.67;;;;;;;;;;5042082;28;20036;-65
2020/12/03 04:37:34;;;;;;;82.47;33.58;;;;;;;;;;5038244;28;20116;-65
2020/12/03 04:40:01;;;;;;;100.13;43.47;;;;;;;;;;5042536;28;20049;-65
2020/12/03 04:42:31;;;;;;;111.10;48.38;;;;;;;;;;5043165;28;20033;-65
2020/12/03 04:45:00;;;;;;;109.82;47.95;;;;;;;;;;5049279;28;20041;-65
2020/12/03 04:47:43;;;;;;;105.22;45.55;;;;;;;;;;5048901;28;20085;-65
2020/12/03 04:50:16;;;;;;;112.63;42.50;;;;;;;;;;5049408;28;20132;-65
2020/12/03 04:52:53;;;;;;;107.32;45.53;;;;;;;;;;5045651;28;20440;-65
2020/12/03 04:55:22;;;;;;;114.72;47.22;;;;;;;;;;5045437;28;20049;-65
2020/12/03 04:58:01;;;;;;;113.60;48.72;;;;;;;;;;5044324;28;20094;-65
2020/12/03 05:00:37;;;;;;;110.30;43.35;;;;;;;;;;5048847;28;20052;-65
2020/12/03 05:03:10;;;;;;;111.43;47.08;;;;;;;;;;5043194;28;20468;-65
2020/12/03 05:05:45;;;;;;;118.07;47.45;;;;;;;;;;5043479;28;20091;-65
2020/12/03 05:08:29;;;;;;;104.05;45.72;;;;;;;;;;5043395;28;20103;-65
2020/12/03 05:10:55;;;;;;;124.40;47.55;;;;;;;;;;5051814;28;20519;-65
2020/12/03 05:13:30;;;;;;;98.18;36.90;;;;;;;;;;5037903;28;20476;-65
2020/12/03 05:16:10;;;;;;;104.60;39.58;;;;;;;;;;5042661;28;20094;-66
2020/12/03 05:18:39;;;;;;;107.47;45.92;;;;;;;;;;5041926;28;20126;-66
2020/12/03 05:21:11;;;;;;;122.93;49.13;;;;;;;;;;5038187;28;20099;-65
2020/12/03 05:23:37;;;;;;;103.97;41.00;;;;;;;;;;5042763;28;20037;-66
2020/12/03 05:26:11;;;;;;;118.53;48.92;;;;;;;;;;5041604;28;20041;-65
2020/12/03 05:28:45;;;;;;;109.97;43.40;;;;;;;;;;5033335;28;20045;-66
2020/12/03 05:31:21;;;;;;;105.90;41.50;;;;;;;;;;5050564;28;20094;-66
2020/12/03 05:33:48;;;;;;;114.28;49.10;;;;;;;;;;5038642;28;20037;-65
2020/12/03 05:36:18;;;;;;;114.50;49.13;;;;;;;;;;5046040;28;20461;-66
2020/12/03 05:38:44;;;;;;;110.20;47.45;;;;;;;;;;5046578;28;20123;-65
2020/12/03 05:41:13;;;;;;;114.53;48.10;;;;;;;;;;5037883;28;20045;-65
2020/12/03 05:43:39;;;;;;;115.15;46.45;;;;;;;;;;5054167;28;20036;-65
2020/12/03 05:46:06;;;;;;;112.00;45.90;;;;;;;;;;5043662;28;20034;-66
2020/12/03 05:48:32;;;;;;;112.78;49.13;;;;;;;;;;5045800;28;20112;-65
2020/12/03 05:50:58;;;;;;;110.53;46.67;;;;;;;;;;5047963;28;20421;-65
2020/12/03 05:53:26;;;;;;;102.20;41.78;;;;;;;;;;5049260;28;20153;-66
2020/12/03 05:56:09;;;;;;;96.05;38.58;;;;;;;;;;5047225;28;20045;-66
2020/12/03 05:58:35;;;;;;;107.30;45.45;;;;;;;;;;5053193;28;20159;-66
2020/12/03 06:01:06;;;;;;;112.75;46.08;;;;;;;;;;5057057;28;20051;-65
2020/12/03 06:03:40;;;;;;;112.72;48.53;;;;;;;;;;5050121;28;20044;-65
2020/12/03 06:06:16;;;;;;;117.55;48.08;;;;;;;;;;5047408;28;20052;-65
2020/12/03 06:08:42;;;;;;;104.13;42.22;;;;;;;;;;5053108;28;20120;-66
2020/12/03 06:11:14;;;;;;;114.45;46.78;;;;;;;;;;5055410;28;20051;-66
2020/12/03 06:13:49;;;;;;;114.25;47.65;;;;;;;;;;5052846;28;20041;-65
2020/12/03 06:16:16;;;;;;;106.18;37.70;;;;;;;;;;5060862;28;20040;-66
2020/12/03 06:18:52;;;;;;;109.72;44.42;;;;;;;;;;5050018;28;20115;-66
2020/12/03 06:21:30;;;;;;;115.65;45.10;;;;;;;;;;5051263;28;20565;-66
2020/12/03 06:24:02;;;;;;;120.22;46.80;;;;;;;;;;5057432;28;20543;-65
2020/12/03 06:26:32;;;;;;;101.53;35.42;;;;;;;;;;5043519;28;20037;-66
2020/12/03 06:29:02;;;;;;;107.15;42.53;;;;;;;;;;5040529;28;20720;-66
2020/12/03 06:31:34;;;;;;;122.35;45.50;;;;;;;;;;5045637;28;20040;-66
2020/12/03 06:34:11;;;;;;;107.20;43.97;;;;;;;;;;5056696;28;20052;-66
2020/12/03 06:36:42;;;;;;;112.53;47.38;;;;;;;;;;5031633;28;20599;-66
2020/12/03 06:39:21;;;;;;;113.25;42.88;;;;;;;;;;5040894;28;20052;-66
2020/12/03 06:41:50;;;;;;;123.68;48.90;;;;;;;;;;5052595;28;20452;-66
2020/12/03 06:44:20;;;;;;;94.00;34.10;;;;;;;;;;5063474;28;20048;-66
2020/12/03 06:46:52;;;;;;;127.05;45.65;;;;;;;;;;5054535;28;20056;-66
2020/12/03 06:49:27;;;;;;;110.85;42.55;;;;;;;;;;5060403;28;20041;-66
2020/12/03 06:51:53;;;;;;;106.97;42.63;;;;;;;;;;5047827;28;20103;-66
2020/12/03 06:54:38;;;;;;;124.07;48.97;;;;;;;;;;5033643;28;20445;-66
2020/12/03 06:57:21;;;;;;;96.80;35.38;;;;;;;;;;5051613;28;20072;-66
2020/12/03 06:59:47;;;;;;;115.32;44.55;;;;;;;;;;5041317;28;20045;-66
2020/12/03 07:02:26;;;;;;;109.85;42.28;;;;;;;;;;5051945;28;20029;-66
2020/12/03 07:05:03;;;;;;;86.05;32.15;;;;;;;;;;5059007;28;20041;-66
2020/12/03 07:07:38;;;;;;;99.43;37.20;;;;;;;;;;5067702;28;20492;-66
2020/12/03 07:10:13;;;;;;;114.15;42.97;;;;;;;;;;5029457;28;20040;-66
2020/12/03 07:12:49;;;;;;;89.75;31.58;;;;;;;;;;5048137;28;20044;-66
2020/12/03 07:15:15;;;;;;;114.47;45.42;;;;;;;;;;5046062;28;20061;-66
2020/12/03 07:18:01;;;;;;;110.35;40.40;;;;;;;;;;5058293;28;20045;-66
2020/12/03 07:20:46;;;;;;;116.38;44.85;;;;;;;;;;5040754;28;20416;-66
2020/12/03 07:23:17;;;;;;;126.00;46.28;;;;;;;;;;5042078;28;20113;-66
2020/12/03 07:25:44;;;;;;;111.90;40.88;;;;;;;;;;5048288;28;20042;-66
2020/12/03 07:28:16;;;;;;;118.55;44.40;;;;;;;;;;5045986;28;20053;-66
2020/12/03 07:30:46;;;;;;;105.72;41.67;;;;;;;;;;5054000;28;20100;-66
2020/12/03 07:33:31;;;;;;;114.65;45.40;;;;;;;;;;5044206;28;20037;-66
2020/12/03 07:36:01;;;;;;;96.32;35.28;;;;;;;;;;5049120;28;20053;-66
2020/12/03 07:38:31;;;;;;;115.28;42.15;;;;;;;;;;5043943;28;20045;-66
2020/12/03 07:40:58;;;;;;;124.70;48.22;;;;;;;;;;5038605;28;20045;-66
2020/12/03 07:43:27;;;;;;;115.10;37.83;;;;;;;;;;5045224;28;20045;-66
2020/12/03 07:45:54;;;;;;;118.57;46.28;;;;;;;;;;5051428;28;20053;-66
2020/12/03 07:48:23;;;;;;;116.22;49.20;;;;;;;;;;5045658;28;20061;-66
2020/12/03 07:51:02;;;;;;;119.90;46.80;;;;;;;;;;5044870;28;20044;-66
2020/12/03 07:53:29;;;;;;;108.03;38.00;;;;;;;;;;5046213;28;20080;-66
2020/12/03 07:55:56;;;;;;;103.97;37.25;;;;;;;;;;5045652;28;20049;-66
2020/12/03 07:58:40;;;;;;;122.35;45.60;;;;;;;;;;5047558;28;20072;-66
2020/12/03 08:01:07;;;;;;;117.60;43.80;;;;;;;;;;5050063;28;20095;-66
2020/12/03 08:03:41;;;;;;;108.75;39.53;;;;;;;;;;5041642;28;20108;-66
2020/12/03 08:06:08;;;;;;;119.32;46.47;;;;;;;;;;5038322;28;20044;-66
2020/12/03 08:08:35;;;;;;;119.72;47.30;;;;;;;;;;5042773;28;20052;-66
2020/12/03 08:11:02;;;;;;;117.28;46.65;;;;;;;;;;5050182;28;20037;-66
2020/12/03 08:13:41;;;;;;;133.77;49.30;;;;;;;;;;5038793;28;20045;-66
2020/12/03 08:16:30;;;;;;;128.68;48.78;;;;;;;;;;5041548;28;20397;-66
2020/12/03 08:19:15;;;;;;;115.70;45.17;;;;;;;;;;5045511;28;20030;-66
2020/12/03 08:21:42;;;;;;;102.07;34.22;;;;;;;;;;5044634;28;20040;-66
2020/12/03 08:24:18;;;;;;;131.25;46.72;;;;;;;;;;5039265;28;20037;-66
2020/12/03 08:26:45;;;;;;;124.85;46.33;;;;;;;;;;5055318;28;20037;-66
2020/12/03 08:29:23;;;;;;;128.97;47.73;;;;;;;;;;5045555;28;20065;-66
2020/12/03 08:31:50;;;;;;;125.90;49.08;;;;;;;;;;5040894;28;20045;-66
2020/12/03 08:34:16;;;;;;;126.22;46.00;;;;;;;;;;5042502;28;20065;-67
2020/12/03 08:36:42;;;;;;;129.68;51.60;;;;;;;;;;5054948;28;20045;-66
2020/12/03 08:39:09;;;;;;;127.03;48.58;;;;;;;;;;5048503;28;20045;-66
2020/12/03 08:41:35;;;;;;;125.80;47.17;;;;;;;;;;5041202;28;20053;-66
2020/12/03 08:44:04;;;;;;;123.57;48.63;;;;;;;;;;5052622;28;20091;-66
2020/12/03 08:46:31;;;;;;;119.90;45.95;;;;;;;;;;5048048;28;20095;-67
2020/12/03 08:48:58;;;;;;;133.90;47.42;;;;;;;;;;5042590;28;20052;-67
2020/12/03 08:51:24;;;;;;;130.50;50.58;;;;;;;;;;5056970;28;20040;-66
2020/12/03 08:53:51;;;;;;;129.77;49.50;;;;;;;;;;5062390;28;20376;-66
2020/12/03 08:56:18;;;;;;;117.68;48.70;;;;;;;;;;5054458;28;20117;-66
2020/12/03 08:58:55;;;;;;;125.43;50.33;;;;;;;;;;5048883;28;20052;-66
2020/12/03 09:01:22;;;;;;;122.85;49.10;;;;;;;;;;5037390;28;20049;-66
2020/12/03 09:03:50;;;;;;;126.68;49.92;;;;;;;;;;5049941;28;20562;-67
2020/12/03 09:06:16;;;;;;;127.40;49.40;;;;;;;;;;5039893;28;20396;-66
2020/12/03 09:08:42;;;;;;;114.70;42.70;;;;;;;;;;5041138;28;20060;-66
2020/12/03 09:11:09;;;;;;;115.60;46.13;;;;;;;;;;5042831;28;20508;-66
2020/12/03 09:13:35;;;;;;;116.10;48.03;;;;;;;;;;5046599;28;20049;-67
2020/12/03 09:16:03;;;;;;;110.88;46.38;;;;;;;;;;5036144;28;20048;-66
2020/12/03 09:18:29;;;;;;;109.07;39.20;;;;;;;;;;5049623;28;20049;-66
2020/12/03 09:20:55;;;;;;;111.20;48.15;;;;;;;;;;5049534;28;20045;-67
2020/12/03 09:23:29;;;;;;;124.57;48.78;;;;;;;;;;5048318;28;20063;-66
2020/12/03 09:25:56;;;;;;;116.40;48.83;;;;;;;;;;5052849;28;20071;-66
2020/12/03 09:28:22;;;;;;;120.67;51.17;;;;;;;;;;5031178;28;20400;-66
2020/12/03 09:30:51;;;;;;;119.65;49.17;;;;;;;;;;5053022;28;20378;-66
2020/12/03 09:33:20;;;;;;;116.47;49.30;;;;;;;;;;5047343;28;20110;-66
2020/12/03 09:35:48;;;;;;;116.45;46.22;;;;;;;;;;5048333;28;20033;-66
2020/12/03 09:38:15;;;;;;;121.95;46.95;;;;;;;;;;5037273;28;20042;-66
2020/12/03 09:40:44;;;;;;;114.35;44.65;;;;;;;;;;5050419;28;20556;-66
2020/12/03 09:43:10;;;;;;;;;;;;;;;;;;5060053;28;20041;-66
2020/12/03 09:45:41;;;;;;;115.53;46.80;;;;;;;;;;5050881;28;19931;-66
2020/12/03 09:48:15;;;;;;;123.78;48.40;;;;;;;;;;5049139;28;20049;-66
2020/12/03 09:50:43;;;;;;;117.90;44.03;;;;;;;;;;5051145;28;20041;-66
2020/12/03 09:53:17;;;;;;;124.68;50.25;;;;;;;;;;5040405;28;20116;-66
2020/12/03 09:55:44;;;;;;;109.70;46.00;;;;;;;;;;5042454;28;20401;-66
2020/12/03 09:58:11;;;;;;;125.80;50.05;;;;;;;;;;5043713;28;20044;-66
2020/12/03 10:00:39;;;;;;;119.78;46.90;;;;;;;;;;5047719;28;20045;-66
2020/12/03 10:03:21;;;;;;;114.63;48.50;;;;;;;;;;5041581;28;20048;-67
2020/12/03 10:05:48;;;;;;;126.05;49.45;;;;;;;;;;5040413;28;20505;-66
2020/12/03 10:08:39;;;;;;;130.55;51.20;;;;;;;;;;5041938;28;20292;-66
2020/12/03 10:11:08;;;;;;;128.57;49.83;;;;;;;;;;5032989;28;20045;-66
2020/12/03 10:13:48;;;;;;;130.50;47.60;;;;;;;;;;5063639;28;20040;-66
2020/12/03 10:16:22;;;;;;;128.80;51.92;;;;;;;;;;5044712;28;20041;-67
2020/12/03 10:18:52;;;;;;;129.18;52.08;;;;;;;;;;5043126;28;20405;-66
2020/12/03 10:21:23;;;;;;;131.38;52.85;;;;;;;;;;5042357;28;20042;-66
2020/12/03 10:23:49;;;;;;;120.32;46.35;;;;;;;;;;5049810;28;20045;-66
2020/12/03 10:26:21;;;;;;;126.22;52.00;;;;;;;;;;5047961;28;20055;-67
2020/12/03 10:29:04;;;;;;;137.68;53.33;;;;;;;;;;5042935;28;20049;-66
2020/12/03 10:31:39;;;;;;;128.93;50.80;;;;;;;;;;5053193;28;20055;-66
2020/12/03 10:34:05;;;;;;;123.15;48.33;;;;;;;;;;5059179;28;20102;-66
2020/12/03 10:36:36;;;;;;;126.25;51.75;;;;;;;;;;5056454;28;20040;-66
2020/12/03 10:39:02;;;;;;;125.15;51.10;;;;;;;;;;5052991;28;20045;-66
2020/12/03 10:41:34;;;;;;;111.60;42.65;;;;;;;;;;5047980;28;20052;-66
2020/12/03 10:44:02;;;;;;;120.57;49.35;;;;;;;;;;5055665;28;20073;-66
2020/12/03 10:46:31;;;;;;;120.07;49.72;;;;;;;;;;5042563;28;20123;-66
2020/12/03 10:48:58;;;;;;;117.40;46.28;;;;;;;;;;5042062;28;20052;-66
2020/12/03 10:51:25;;;;;;;126.60;50.40;;;;;;;;;;5045120;28;20053;-66
2020/12/03 10:53:53;;;;;;;116.28;47.17;;;;;;;;;;5048359;28;20554;-66
2020/12/03 10:56:26;;;;;;;111.97;46.55;;;;;;;;;;5059159;28;20043;-66
2020/12/03 10:58:58;;;;;;;118.85;47.65;;;;;;;;;;5048870;28;20064;-66
2020/12/03 11:01:27;;;;;;;112.22;45.30;;;;;;;;;;5040097;28;20493;-66
2020/12/03 11:03:57;;;;;;;120.40;47.58;;;;;;;;;;5028256;28;20047;-66
2020/12/03 11:06:26;;;;;;;119.63;47.45;;;;;;;;;;5049719;28;20509;-66
2020/12/03 11:08:53;;;;;;;124.45;47.83;;;;;;;;;;5064912;28;20412;-66
2020/12/03 11:11:20;;;;;;;124.10;48.28;;;;;;;;;;5051846;28;20052;-66
2020/12/03 11:13:47;;;;;;;125.05;48.63;;;;;;;;;;5049088;28;20398;-66
2020/12/03 11:16:21;;;;;;;100.65;39.40;;;;;;;;;;5042771;28;20049;-66
2020/12/03 11:19:09;;;;;;;124.35;45.97;;;;;;;;;;5048575;28;20033;-66
2020/12/03 11:21:36;;;;;;;133.95;52.38;;;;;;;;;;5045053;28;20049;-66
2020/12/03 11:24:04;;;;;;;111.82;40.58;;;;;;;;;;5060373;28;20049;-66
2020/12/03 11:26:34;;;;;;;126.13;47.13;;;;;;;;;;5051727;28;20056;-66
2020/12/03 11:29:14;;;;;;;128.05;50.50;;;;;;;;;;5056203;28;20043;-66
2020/12/03 11:31:41;;;;;;;112.30;39.60;;;;;;;;;;5034908;28;20410;-66
2020/12/03 11:34:08;;;;;;;120.20;48.33;;;;;;;;;;5055172;28;20400;-66
2020/12/03 11:36:35;;;;;;;86.65;28.67;;;;;;;;;;5056494;28;20041;-66
2020/12/03 11:39:03;;;;;;;99.10;36.58;;;;;;;;;;5056131;28;20040;-66
2020/12/03 11:49:35;;;;;;;109.93;41.85;;;;;;;;;;5050136;28;20037;-66
2020/12/03 11:52:16;;;;;;;103.75;41.97;;;;;;;;;;5046153;28;20045;-66
2020/12/03 11:54:47;;;;;;;109.15;40.08;;;;;;;;;;5057936;28;20044;-66
2020/12/03 11:57:13;;;;;;;100.25;38.50;;;;;;;;;;5059259;28;20045;-66
2020/12/03 11:59:40;;;;;;;103.93;40.03;;;;;;;;;;5056892;28;20041;-66
2020/12/03 12:02:07;;;;;;;103.70;42.70;;;;;;;;;;5049556;28;20508;-67
2020/12/03 12:07:20;;;;;;;105.30;41.30;;;;;;;;;;5048997;28;20042;-67
2020/12/03 12:10:16;;;;;;;95.80;41.47;;;;;;;;;;5053261;28;20467;-67
2020/12/03 12:12:35;;;;;;;97.68;39.35;;;;;;;;;;5051186;28;20086;-66
2020/12/03 12:15:02;;;;;;;95.88;38.08;;;;;;;;;;5047820;28;20071;-66
2020/12/03 12:17:35;;;;;;;99.45;40.88;;;;;;;;;;5031013;28;20069;-66
2020/12/03 12:20:05;;;;;;;104.22;40.38;;;;;;;;;;5048926;28;20045;-66
2020/12/03 12:22:32;;;;;;;105.28;40.60;;;;;;;;;;5047230;28;20048;-66
2020/12/03 12:24:58;;;;;;;98.18;39.42;;;;;;;;;;5061911;28;20055;-67
2020/12/03 12:27:24;;;;;;;104.35;40.10;;;;;;;;;;5056182;28;20048;-66
2020/12/03 12:29:51;;;;;;;99.15;37.58;;;;;;;;;;5038212;28;20072;-66
2020/12/03 12:32:17;;;;;;;100.63;35.80;;;;;;;;;;5047057;28;20120;-67
2020/12/03 12:34:44;;;;;;;104.75;40.10;;;;;;;;;;5043552;28;20882;-67
2020/12/03 12:37:10;;;;;;;104.97;39.83;;;;;;;;;;5053083;28;20048;-66
2020/12/03 12:39:38;;;;;;;98.38;39.40;;;;;;;;;;5050514;28;20044;-66
2020/12/03 12:42:05;;;;;;;97.47;39.45;;;;;;;;;;5039110;28;20083;-67
2020/12/03 12:44:32;;;;;;;97.70;39.85;;;;;;;;;;5056245;28;20037;-66
2020/12/03 12:46:59;;;;;;;92.45;34.50;;;;;;;;;;5045311;28;20063;-67
2020/12/03 12:49:26;;;;;;;99.43;40.00;;;;;;;;;;5050871;28;20072;-66
2020/12/03 12:51:53;;;;;;;94.95;38.08;;;;;;;;;;5051947;28;20037;-66
2020/12/03 12:54:21;;;;;;;101.60;39.30;;;;;;;;;;5051079;28;20318;-67
2020/12/03 12:56:48;;;;;;;98.85;38.03;;;;;;;;;;5059586;28;20059;-66
2020/12/03 12:59:19;;;;;;;92.32;36.80;;;;;;;;;;5049958;28;20028;-66
2020/12/03 13:01:45;;;;;;;90.32;38.08;;;;;;;;;;5040156;28;20053;-66
2020/12/03 13:04:12;;;;;;;90.57;36.42;;;;;;;;;;5036529;28;20037;-66
2020/12/03 13:06:40;;;;;;;94.57;39.22;;;;;;;;;;5056210;28;20041;-66
2020/12/03 13:09:07;;;;;;;89.63;37.13;;;;;;;;;;5052985;28;20048;-66
2020/12/03 13:11:33;;;;;;;;;;;;;;;;;;5053752;28;20430;-66
2020/12/03 13:14:00;;;;;;;94.30;35.88;;;;;;;;;;5058747;28;19921;-67
2020/12/03 13:16:27;;;;;;;89.73;37.23;;;;;;;;;;5037402;28;20045;-66
2020/12/03 13:18:53;;;;;;;93.60;39.55;;;;;;;;;;5038626;28;20298;-66
2020/12/03 13:21:19;;;;;;;95.95;38.58;;;;;;;;;;5043671;28;20489;-66
2020/12/03 13:23:45;;;;;;;92.05;38.33;;;;;;;;;;5042020;28;20044;-66
2020/12/03 13:26:17;;;;;;;90.07;37.50;;;;;;;;;;5043222;28;20041;-66
2020/12/03 13:28:44;;;;;;;94.68;38.55;;;;;;;;;;5050761;28;20037;-66
2020/12/03 13:31:10;;;;;;;86.47;30.57;;;;;;;;;;5041565;28;20053;-67
2020/12/03 13:33:36;;;;;;;87.30;36.65;;;;;;;;;;5049618;28;20367;-66
2020/12/03 13:36:02;;;;;;;85.80;36.17;;;;;;;;;;5060447;28;20057;-66
2020/12/03 13:38:29;;;;;;;87.38;35.85;;;;;;;;;;5047562;28;20120;-66
2020/12/03 13:40:55;;;;;;;85.95;36.17;;;;;;;;;;5049289;28;20052;-66
2020/12/03 13:43:22;;;;;;;88.40;37.45;;;;;;;;;;5054193;28;20049;-66
2020/12/03 13:45:48;;;;;;;68.35;30.17;;;;;;;;;;5055251;28;20051;-66
2020/12/03 13:48:14;;;;;;;79.88;35.58;;;;;;;;;;5050197;28;20065;-67
2020/12/03 13:50:41;;;;;;;81.13;35.42;;;;;;;;;;5047582;28;20041;-67
2020/12/03 13:53:07;;;;;;;80.70;35.03;;;;;;;;;;5025141;28;20520;-68
2020/12/03 13:55:33;;;;;;;75.60;30.65;;;;;;;;;;5050091;28;20532;-66
2020/12/03 13:58:00;;;;;;;72.25;31.52;;;;;;;;;;5056052;28;20064;-67
2020/12/03 14:00:27;;;;;;;61.17;23.40;;;;;;;;;;5053926;28;20067;-66
2020/12/03 14:02:54;;;;;;;68.22;29.83;;;;;;;;;;5046654;28;20091;-66
2020/12/03 14:05:20;;;;;;;76.75;30.40;;;;;;;;;;5068142;28;20044;-67
2020/12/03 14:07:53;;;;;;;70.65;30.15;;;;;;;;;;5053065;28;20045;-66
2020/12/03 14:10:19;;;;;;;72.13;31.05;;;;;;;;;;5045974;28;20103;-66
2020/12/03 14:12:45;;;;;;;49.92;18.40;;;;;;;;;;5049326;28;20525;-66
2020/12/03 14:15:12;;;;;;;65.55;26.90;;;;;;;;;;5040352;28;20083;-67
2020/12/03 14:17:38;;;;;;;70.03;30.08;;;;;;;;;;5041905;28;20374;-66
2020/12/03 14:20:06;;;;;;;70.67;30.80;;;;;;;;;;5049356;28;20041;-66
2020/12/03 14:22:32;;;;;;;;;;;;;;;;;;5044541;28;20037;-66
2020/12/03 14:24:58;;;;;;;65.78;28.83;;;;;;;;;;5046960;28;19921;-66
2020/12/03 14:27:25;;;;;;;71.22;29.55;;;;;;;;;;5047706;28;20037;-66
2020/12/03 14:29:52;;;;;;;75.90;32.88;;;;;;;;;;5052450;28;20045;-66
2020/12/03 14:32:18;;;;;;;54.15;23.77;;;;;;;;;;5055006;28;20044;-66